カンクン の空港の天気 - METARとTAF

カンクン国際空港 ( MMUN / CUN ) - メキシコ キンタナ・ロー州カンクン
飛行場実況気象(Metar)
観測時間10/22 06:45 CDT (10/22 11:45 UTC)
風向・風速静穏 0m/s
視程10km以上
天気現象
少しの雲 雲底高度 460m
全天の4割程度の雲 雲底高度 2440m
気温25℃
湿度94%
気圧1009.3hPa
METARMMUN 221145Z 00000KT 7SM FEW015TCU SCT080 25/24 A2980 RMK SLP093 52001 909 8/270 CI
過去の天気等 Google飛行場航空写真 Wunderground天気予報

過去48時間のMETAR

飛行場予報(TAF)
発表時間: 10/22 06:08 CDT (10/22 11:08 UTC)
予報対象時間: 22日7時 CDT ~ 23日13時 CDT
風向・風速東北東 3m/s
視程10km以上
天気現象周辺で 雷
全天の4割程度の雲 雲底高度 460m
全天の4割程度の雲 雲底高度 2440m
22日11時 CDT から
風向・風速東 5m/s
視程10km以上
全天の4割程度の雲 雲底高度 460m
22日16時 CDT から
風向・風速東 6m/s
視程10km以上
全天の8割程度の雲 雲底高度 460m
22日16時 CDT から 確率 40% で
視程6440m
天気現象雷雨
全天の8割程度の積乱雲 雲底高度 460m
22日22時 CDT から
風向・風速東 3m/s
視程10km以上
全天の4割程度の雲 雲底高度 460m
全天の8割程度の雲 雲底高度 7620m
23日11時 CDT から
風向・風速東南東 5m/s
視程10km以上
全天の4割程度の雲 雲底高度 460m
TAF MMUN 221108Z 2212/2318 06005KT P6SM VC TS SCT015 SCT080 TX25/2212Z TN24/2212Z
FM221600 08010KT P6SM SCT015
FM222100 08012KT P6SM BKN015
PROB40 2221/2301 4SM TSRA BKN015CB
FM230300 08005KT P6SM SCT015 BKN250
FM231600 12010KT P6SM SCT015